Terminal Aerodrome Forecast
Issued by NWS

Home | Current Version | Previous Version | Graphics & Text | Print | Product List | Glossary On
Versions: 1 2 3 4 5 6 7 8 9 10 11 12 13 14 15 16 17 18
194
FTUS43 KPAH 191408 AAA
TAFCGI
TAF AMD
KCGI 191408Z 1914/2012 00000KT P6SM SKC
     FM191500 00000KT P6SM FEW020
     FM191700 22005KT P6SM SCT035
     FM200000 18003KT P6SM SKC=

USA.gov is the U.S. government's official web portal to all federal, state and local government web resources and services.